Flight Track Log - Related Links

Times and Time Zones

All times are in EDT time to prevent confusion due to time zone crossing. See the CTL61 flight status page for this flight to view local times or setup timezone preferences in your user account.

Time Position Orientation Groundspeed Altitude Reporting Facility
EDT Latitude Longitude Course Direction KTS MPH feet Rate Location/Type
Wed 11:38:12 PM 38.4642 -81.6869 325° Northwest 136 157 4,400  Level Indianapolis Center
Wed 11:39:13 PM 38.4958 -81.7153 325° Northwest 137 158 5,200 738 Climbing Indianapolis Center
Wed 11:40:14 PM 38.5283 -81.7444 325° Northwest 140 161 5,900 393 Climbing Indianapolis Center
Wed 11:41:00 PM 38.6085 -81.7891 327° Northwest  Level FlightAware Approximate
Wed 11:41:15 PM 38.5686 -81.7764 328° Northwest 169 194 6,000  Level Indianapolis Center
Wed 11:42:00 PM 38.6489 -81.8233 327° Northwest  Level FlightAware Approximate
Wed 11:42:16 PM 38.6108 -81.8147 325° Northwest 182 209 6,000  Level Indianapolis Center
Wed 11:43:17 PM 38.6539 -81.8550 324° Northwest 190 219 6,000  Level Indianapolis Center
Wed 11:44:18 PM 38.6953 -81.8953 323° Northwest 188 216 6,000  Level Indianapolis Center
Wed 11:45:19 PM 38.7411 -81.9294 330° Northwest 191 220 6,000  Level Indianapolis Center
Wed 11:46:20 PM 38.7847 -81.9667 326° Northwest 187 215 6,000  Level Indianapolis Center
Wed 11:47:21 PM 38.8289 -82.0025 328° Northwest 188 216 6,000  Level Indianapolis Center
Wed 11:48:22 PM 38.8719 -82.0400 326° Northwest 187 215 6,000 49 Level Indianapolis Center
Wed 11:49:23 PM 38.9153 -82.0758 327° Northwest 186 214 6,100 50 Climbing Indianapolis Center
Wed 11:50:23 PM 38.9586 -82.1125 327° Northwest 186 214 6,100 -50 Level Indianapolis Center
Wed 11:51:24 PM 39.0022 -82.1500 326° Northwest 187 215 6,000 -49 Descending Indianapolis Center
Wed 11:52:25 PM 39.0453 -82.1856 327° Northwest 186 214 6,000  Level Indianapolis Center
Wed 11:53:26 PM 39.0972 -82.2306 326° Northwest 187 215 6,000  Level Indianapolis Center
Wed 11:54:27 PM 39.1400 -82.2692 325° Northwest 186 214 6,000  Level Indianapolis Center
Wed 11:55:28 PM 39.1800 -82.3106 321° Northwest 184 212 6,000  Level Indianapolis Center
Wed 11:56:29 PM 39.2217 -82.3506 323° Northwest 185 213 6,000  Level Indianapolis Center
Wed 11:57:30 PM 39.2617 -82.3897 323° Northwest 182 209 6,000  Level Indianapolis Center
Wed 11:58:31 PM 39.3036 -82.4294 324° Northwest 185 213 6,000  Level Indianapolis Center
Wed 11:59:32 PM 39.3456 -82.4686 324° Northwest 186 214 6,000 68 Level Indianapolis Center
Wed 11:59:59 PM 39.3672 -82.4853 329° Northwest 186 214 6,100  Climbing Indianapolis Center
Thu 12:00:30 AM 39.3908 -82.5067 325° Northwest 185 213 6,000 -66 Descending Indianapolis Center
Thu 12:01:30 AM 39.4325 -82.5436 326° Northwest 183 211 6,000  Level Indianapolis Center
Thu 12:02:31 AM 39.4739 -82.5803 326° Northwest 183 211 6,000  Level Indianapolis Center
Thu 12:03:36 AM 39.5197 -82.6167 329° Northwest 181 208 6,000  Level Indianapolis Center
Thu 12:04:32 AM 39.5594 -82.6492 328° Northwest 181 208 6,000 51 Level Indianapolis Center
Thu 12:05:33 AM 39.6050 -82.6892 326° Northwest 182 209 6,100 50 Climbing Indianapolis Center
Thu 12:06:33 AM 39.6464 -82.7264 325° Northwest 183 211 6,100 -94 Level Indianapolis Center
Thu 12:07:40 AM 39.6897 -82.7647 326° Northwest 184 212 5,900 -295 Descending Indianapolis Center
Thu 12:08:35 AM 39.7292 -82.8058 321° Northwest 191 220 5,500 -495 Descending Indianapolis Center
Thu 12:09:29 AM 39.7706 -82.8431 325° Northwest 197 227 5,000 -470 Descending Indianapolis Center
Thu 12:10:30 AM 39.8183 -82.8783 330° Northwest 194 223 4,600 -446 Descending Indianapolis Center
Thu 12:11:30 AM 39.8619 -82.9158 327° Northwest 194 223 4,100 -267 Descending Indianapolis Center
Thu 12:12:45 AM 39.9128 -82.9575 328° Northwest 188 216 4,000 -44 Descending Indianapolis Center
Thu 12:13:46 AM 39.9617 -82.9944 330° Northwest 185 213 4,000  Level Indianapolis Center
Thu 12:15:00 AM 40.0156 -83.0283 334° Northwest  Level FlightAware Approximate
Thu 12:22:00 AM 40.0667 -83.0667 323° Northwest  Level FlightAware Approximate
Thu 12:23:00 AM 40.0798 -83.0732 323° Northwest  Level Estimated

Login

Don't have an account? Register now (free) for customized features, flight alerts, and more!